Union Cross, North Carolina
Current Conditions -  °F | °C
As of 9:54 PM on Sunday 23 Nov 2014 (Local Time) from KGSO Reporting Station
Moderate Rain Moderate Rain  
Wind Chill: 61°   Ceiling: 800
Heat Index: 61°   Visibility: 4mi
Dew Point: 60°   Wind: 21mph
Humidity: 97%   Direction: 160°SSE
Pressure: 29.76"   Gusts: 28mph
Location:  36.1188°N, 80.075°W
Report Text: KGSO 240254Z 16018G24KT 4SM RA BR OVC008 16/16 A2976 RMK AO2 PK WND 15027/0224 SLP074 P0025 60056 T01610156 56037
Loading
Personal Weather Stations






























Interactive Weather Map New forecast layout! Learn more

10-Day Weather Forecast

Advertisements
Track Severe Weather on mobile